メインページ
METAR-TAF:

METAR-TAF

空港 :

ナタール, リオグランデ・ド・ノルテ州, ブラジル

緯度: 05-46-05S, 経度: 035-22-34W, 海抜: 88m

現時点の気象観測

当レポートは16分前の13:00(UTC)に作成
南/南東の風 13kt、東/南東から南/南西の間で変化する
気温 30°C
湿度 70%
気圧
視程: 1014m
高度2300ftの千切れ雲あり
高度2700ftの雲はほとんどない, 塔状積雲.
近辺でにわか雨

METAR: SBSG 201300Z 15013KT 120V200 9999 VCSH BKN023 FEW027TCU 30/24 Q 1014

時間: 10:16 (13:16 UTC)

予報

当レポートは3時間16分前の10:00(UTC)に作成
予報は20日の 12時(UTC)から 21日の 12時(UTC)まで有効
南/南東の風 15kt
視程: 8000m
高度1800ftの千切れ雲あり
20日の 16時(UTC)から 20日の 17時(UTC)まで徐々に
高度3000ftの雲は散在している
20日の 22時(UTC)から 20日の 23時(UTC)まで徐々に
の風 8kt
21日の 04時(UTC)から 21日の 05時(UTC)まで徐々に
南西の風 4kt

TAF: SBSG 201000Z 2012/2112 15015KT 8000 BKN018 TX31/2015Z TN24/2107Z BECMG 2016/2017 SCT030 BECMG 2022/2023 17008KT BECMG 2104/2105 23004KT RMK PEU

4,000以上の空港の気象観測と天気予報(METAR報とTAF報)

利用可能な観測所は地図上に黄色い丸と赤い丸で示す。

丸の上にカーソルを重ねると観測所名を参照できる。

次にクリックすると気象観測と天気予報を参照できる。

マップの切り替え:黒色「×」印の緑ボタンをクリックして拡大、「-」印の緑ボタンをクリックして縮小、緑色の三角印をクリックして隣りの地図に切り替え


METAR-TAF: